Decoded Metar for KFFM (FERGUS FALLS in MN, USA) (IATA:FFM) | Meteo·Mobile Aviation Weather
aviador You're here:

KFFM Decoded Metar

FERGUS FALLS in MN, USA
Report Time2018-09-22 14:15:00
UTC Time2018-09-22 14:41:53
Flight Rules vfr VFR
Wind180° at 13 Gusting to 17 kt
W.Decomp.*RWY 17: 13.0 kt HW 1.1 kt RCW
RWY 13: 9.2 kt HW 9.2 kt RCW
W.Rank180° ranks 11
Current wind is above 180° avg. (9.8)
Visibility9999 m
Phenomena:N/A
Clouds:N/A
Expected CloudBase > 2,000 ft AGL from Temp-Dew spread
CeilingNone
Temp11°C (ISA -2)
Dew Point06°C (72% RH)
AAT5.4°C
QNH1022 hPa
Density Alt817 ft
Elevation1,184 ft
Report Wrong Elevation
Raw Report
KFFM 221415Z AUTO 18013G17KT 10SM CLR 11/06 A3018 RMK AO2=

Extra information for KFFM:More info

Metar Taf Metar & Taf Last 4 Metars F.Rules Stats Wind Profile Meteogram Temp Stats Airport Information Weather charts Add Link Nearby VenuesMetar ALERT Operation Metar Decoded Social comments

AIRNAV info for KFFM